sensor_id;sensor_type;location;lat;lon;timestamp;P1;durP1;ratioP1;P2;durP2;ratioP2
22219;SDS011;11279;48.364;10.904;2023-06-22T00:00:23;12.97;;;6.93;;
22219;SDS011;11279;48.364;10.904;2023-06-22T00:01:24;12.00;;;6.63;;
22219;SDS011;11279;48.364;10.904;2023-06-22T00:02:24;14.70;;;6.60;;
22219;SDS011;11279;48.364;10.904;2023-06-22T00:03:25;14.20;;;7.07;;
22219;SDS011;11279;48.364;10.904;2023-06-22T00:04:26;14.40;;;7.17;;
22219;SDS011;11279;48.364;10.904;2023-06-22T00:05:27;13.23;;;7.13;;
22219;SDS011;11279;48.364;10.904;2023-06-22T00:06:27;13.37;;;7.00;;
22219;SDS011;11279;48.364;10.904;2023-06-22T00:07:28;14.67;;;6.90;;
22219;SDS011;11279;48.364;10.904;2023-06-22T00:08:28;18.17;;;7.73;;
22219;SDS011;11279;48.364;10.904;2023-06-22T00:09:29;14.27;;;6.97;;
22219;SDS011;11279;48.364;10.904;2023-06-22T00:10:31;12.80;;;6.77;;
22219;SDS011;11279;48.364;10.904;2023-06-22T00:11:31;14.13;;;6.80;;
22219;SDS011;11279;48.364;10.904;2023-06-22T00:12:33;12.80;;;6.30;;
22219;SDS011;11279;48.364;10.904;2023-06-22T00:13:33;11.37;;;6.20;;
22219;SDS011;11279;48.364;10.904;2023-06-22T00:14:34;12.47;;;6.70;;
22219;SDS011;11279;48.364;10.904;2023-06-22T00:15:35;14.13;;;7.10;;
22219;SDS011;11279;48.364;10.904;2023-06-22T00:16:36;14.27;;;6.90;;
22219;SDS011;11279;48.364;10.904;2023-06-22T00:17:36;14.17;;;6.60;;
22219;SDS011;11279;48.364;10.904;2023-06-22T00:18:37;15.00;;;6.03;;
22219;SDS011;11279;48.364;10.904;2023-06-22T00:19:37;14.10;;;6.57;;
22219;SDS011;11279;48.364;10.904;2023-06-22T00:20:40;11.43;;;6.10;;
22219;SDS011;11279;48.364;10.904;2023-06-22T00:21:41;13.37;;;6.40;;
22219;SDS011;11279;48.364;10.904;2023-06-22T00:22:43;12.77;;;6.13;;
22219;SDS011;11279;48.364;10.904;2023-06-22T00:23:44;15.53;;;7.10;;
22219;SDS011;11279;48.364;10.904;2023-06-22T00:24:44;13.63;;;7.03;;
22219;SDS011;11279;48.364;10.904;2023-06-22T00:25:44;14.47;;;6.57;;
22219;SDS011;11279;48.364;10.904;2023-06-22T00:26:45;12.80;;;6.50;;
22219;SDS011;11279;48.364;10.904;2023-06-22T00:27:46;15.73;;;6.50;;
22219;SDS011;11279;48.364;10.904;2023-06-22T00:28:46;14.17;;;5.97;;
22219;SDS011;11279;48.364;10.904;2023-06-22T00:29:47;13.20;;;6.23;;
22219;SDS011;11279;48.364;10.904;2023-06-22T00:30:48;13.63;;;6.37;;
22219;SDS011;11279;48.364;10.904;2023-06-22T00:31:49;16.20;;;6.43;;
22219;SDS011;11279;48.364;10.904;2023-06-22T00:32:49;12.20;;;6.17;;
22219;SDS011;11279;48.364;10.904;2023-06-22T00:33:50;13.50;;;5.97;;
22219;SDS011;11279;48.364;10.904;2023-06-22T00:34:50;11.17;;;6.30;;
22219;SDS011;11279;48.364;10.904;2023-06-22T00:35:51;17.93;;;6.20;;
22219;SDS011;11279;48.364;10.904;2023-06-22T00:36:52;14.30;;;6.37;;
22219;SDS011;11279;48.364;10.904;2023-06-22T00:37:53;13.10;;;6.43;;
22219;SDS011;11279;48.364;10.904;2023-06-22T00:39:00;14.53;;;6.50;;
22219;SDS011;11279;48.364;10.904;2023-06-22T00:40:01;14.83;;;6.23;;
22219;SDS011;11279;48.364;10.904;2023-06-22T00:41:02;13.00;;;6.03;;
22219;SDS011;11279;48.364;10.904;2023-06-22T00:42:03;13.23;;;6.13;;
22219;SDS011;11279;48.364;10.904;2023-06-22T00:43:04;14.20;;;6.07;;
22219;SDS011;11279;48.364;10.904;2023-06-22T00:44:05;12.90;;;6.27;;
22219;SDS011;11279;48.364;10.904;2023-06-22T00:45:07;16.23;;;6.17;;
22219;SDS011;11279;48.364;10.904;2023-06-22T00:46:07;14.53;;;6.43;;
22219;SDS011;11279;48.364;10.904;2023-06-22T00:47:08;14.73;;;6.47;;
22219;SDS011;11279;48.364;10.904;2023-06-22T00:48:08;10.63;;;5.90;;
22219;SDS011;11279;48.364;10.904;2023-06-22T00:49:09;14.00;;;5.90;;
22219;SDS011;11279;48.364;10.904;2023-06-22T00:50:10;15.43;;;6.17;;
22219;SDS011;11279;48.364;10.904;2023-06-22T00:51:13;14.82;;;5.97;;
22219;SDS011;11279;48.364;10.904;2023-06-22T00:52:14;13.47;;;6.57;;
22219;SDS011;11279;48.364;10.904;2023-06-22T00:53:20;13.65;;;6.43;;
22219;SDS011;11279;48.364;10.904;2023-06-22T00:54:21;13.47;;;6.63;;
22219;SDS011;11279;48.364;10.904;2023-06-22T00:55:24;12.13;;;6.60;;
22219;SDS011;11279;48.364;10.904;2023-06-22T00:56:26;12.50;;;6.50;;
22219;SDS011;11279;48.364;10.904;2023-06-22T00:57:26;14.47;;;6.50;;
22219;SDS011;11279;48.364;10.904;2023-06-22T00:58:28;14.43;;;6.20;;
22219;SDS011;11279;48.364;10.904;2023-06-22T00:59:28;14.00;;;6.27;;
22219;SDS011;11279;48.364;10.904;2023-06-22T01:00:28;11.57;;;6.20;;
22219;SDS011;11279;48.364;10.904;2023-06-22T01:01:30;11.57;;;5.93;;
22219;SDS011;11279;48.364;10.904;2023-06-22T01:02:31;11.70;;;5.53;;
22219;SDS011;11279;48.364;10.904;2023-06-22T01:03:32;13.95;;;5.55;;
22219;SDS011;11279;48.364;10.904;2023-06-22T01:04:36;16.43;;;6.30;;
22219;SDS011;11279;48.364;10.904;2023-06-22T01:05:37;12.93;;;6.18;;
22219;SDS011;11279;48.364;10.904;2023-06-22T01:06:38;13.02;;;6.30;;
22219;SDS011;11279;48.364;10.904;2023-06-22T01:08:57;14.65;;;6.57;;
22219;SDS011;11279;48.364;10.904;2023-06-22T01:10:08;16.48;;;6.43;;
22219;SDS011;11279;48.364;10.904;2023-06-22T01:11:18;13.07;;;6.57;;
22219;SDS011;11279;48.364;10.904;2023-06-22T01:12:21;14.13;;;6.43;;
22219;SDS011;11279;48.364;10.904;2023-06-22T01:13:29;14.20;;;6.80;;
22219;SDS011;11279;48.364;10.904;2023-06-22T01:14:47;14.02;;;6.18;;
22219;SDS011;11279;48.364;10.904;2023-06-22T01:16:02;13.27;;;6.38;;
22219;SDS011;11279;48.364;10.904;2023-06-22T01:17:03;12.37;;;7.00;;
22219;SDS011;11279;48.364;10.904;2023-06-22T01:18:05;15.10;;;7.18;;
22219;SDS011;11279;48.364;10.904;2023-06-22T01:19:17;11.63;;;6.50;;
22219;SDS011;11279;48.364;10.904;2023-06-22T01:20:27;10.23;;;5.80;;
22219;SDS011;11279;48.364;10.904;2023-06-22T01:21:28;15.15;;;6.28;;
22219;SDS011;11279;48.364;10.904;2023-06-22T01:22:32;15.25;;;7.00;;
22219;SDS011;11279;48.364;10.904;2023-06-22T01:26:42;13.37;;;7.10;;
22219;SDS011;11279;48.364;10.904;2023-06-22T01:29:52;13.63;;;6.65;;
22219;SDS011;11279;48.364;10.904;2023-06-22T01:30:53;14.68;;;6.75;;
22219;SDS011;11279;48.364;10.904;2023-06-22T01:32:03;14.32;;;6.72;;
22219;SDS011;11279;48.364;10.904;2023-06-22T01:33:05;11.98;;;6.78;;
22219;SDS011;11279;48.364;10.904;2023-06-22T01:34:06;12.77;;;6.10;;
22219;SDS011;11279;48.364;10.904;2023-06-22T01:35:08;14.52;;;6.63;;
22219;SDS011;11279;48.364;10.904;2023-06-22T01:36:10;12.70;;;7.00;;
22219;SDS011;11279;48.364;10.904;2023-06-22T01:37:11;15.25;;;6.20;;
22219;SDS011;11279;48.364;10.904;2023-06-22T01:38:12;12.90;;;6.97;;
22219;SDS011;11279;48.364;10.904;2023-06-22T01:39:13;15.97;;;6.47;;
22219;SDS011;11279;48.364;10.904;2023-06-22T01:40:14;12.40;;;6.47;;
22219;SDS011;11279;48.364;10.904;2023-06-22T01:41:15;14.65;;;6.65;;
22219;SDS011;11279;48.364;10.904;2023-06-22T01:42:17;13.30;;;6.47;;
22219;SDS011;11279;48.364;10.904;2023-06-22T01:43:17;12.50;;;6.77;;
22219;SDS011;11279;48.364;10.904;2023-06-22T01:44:18;14.97;;;6.73;;
22219;SDS011;11279;48.364;10.904;2023-06-22T01:45:18;16.37;;;7.10;;
22219;SDS011;11279;48.364;10.904;2023-06-22T01:46:19;14.03;;;6.50;;
22219;SDS011;11279;48.364;10.904;2023-06-22T01:47:21;14.77;;;7.10;;
22219;SDS011;11279;48.364;10.904;2023-06-22T01:48:22;14.88;;;6.88;;
22219;SDS011;11279;48.364;10.904;2023-06-22T01:49:23;13.67;;;6.47;;
22219;SDS011;11279;48.364;10.904;2023-06-22T01:50:24;13.73;;;6.70;;
22219;SDS011;11279;48.364;10.904;2023-06-22T01:51:24;11.97;;;6.40;;
22219;SDS011;11279;48.364;10.904;2023-06-22T01:52:25;14.10;;;6.57;;
22219;SDS011;11279;48.364;10.904;2023-06-22T01:53:25;12.43;;;6.80;;
22219;SDS011;11279;48.364;10.904;2023-06-22T01:54:25;14.83;;;6.70;;
22219;SDS011;11279;48.364;10.904;2023-06-22T01:55:26;15.37;;;6.03;;
22219;SDS011;11279;48.364;10.904;2023-06-22T01:56:26;15.33;;;6.80;;
22219;SDS011;11279;48.364;10.904;2023-06-22T01:57:27;12.30;;;6.37;;
22219;SDS011;11279;48.364;10.904;2023-06-22T01:58:28;13.67;;;6.57;;
22219;SDS011;11279;48.364;10.904;2023-06-22T01:59:32;12.13;;;6.32;;
22219;SDS011;11279;48.364;10.904;2023-06-22T02:00:37;15.07;;;6.72;;
22219;SDS011;11279;48.364;10.904;2023-06-22T02:01:44;16.63;;;6.80;;
22219;SDS011;11279;48.364;10.904;2023-06-22T02:02:52;12.50;;;6.40;;
22219;SDS011;11279;48.364;10.904;2023-06-22T02:04:01;12.20;;;6.90;;
22219;SDS011;11279;48.364;10.904;2023-06-22T02:05:07;13.40;;;6.95;;
22219;SDS011;11279;48.364;10.904;2023-06-22T02:06:11;13.30;;;6.53;;
22219;SDS011;11279;48.364;10.904;2023-06-22T02:07:17;11.32;;;6.30;;
22219;SDS011;11279;48.364;10.904;2023-06-22T02:08:20;13.00;;;6.78;;
22219;SDS011;11279;48.364;10.904;2023-06-22T02:09:22;15.70;;;6.60;;
22219;SDS011;11279;48.364;10.904;2023-06-22T02:10:24;11.35;;;6.57;;
22219;SDS011;11279;48.364;10.904;2023-06-22T02:11:26;14.45;;;6.85;;
22219;SDS011;11279;48.364;10.904;2023-06-22T02:12:27;14.77;;;6.90;;
22219;SDS011;11279;48.364;10.904;2023-06-22T02:13:28;12.43;;;6.73;;
22219;SDS011;11279;48.364;10.904;2023-06-22T02:14:29;12.63;;;6.47;;
22219;SDS011;11279;48.364;10.904;2023-06-22T02:15:29;15.27;;;6.20;;
22219;SDS011;11279;48.364;10.904;2023-06-22T02:16:30;14.57;;;6.70;;
22219;SDS011;11279;48.364;10.904;2023-06-22T02:17:32;14.48;;;6.75;;
22219;SDS011;11279;48.364;10.904;2023-06-22T02:18:33;16.23;;;6.18;;
22219;SDS011;11279;48.364;10.904;2023-06-22T02:19:36;13.05;;;6.10;;
22219;SDS011;11279;48.364;10.904;2023-06-22T02:20:37;14.23;;;7.07;;
22219;SDS011;11279;48.364;10.904;2023-06-22T02:21:38;16.85;;;6.88;;
22219;SDS011;11279;48.364;10.904;2023-06-22T02:22:38;11.90;;;6.47;;
22219;SDS011;11279;48.364;10.904;2023-06-22T02:23:39;12.77;;;5.60;;
22219;SDS011;11279;48.364;10.904;2023-06-22T02:24:39;13.73;;;6.37;;
22219;SDS011;11279;48.364;10.904;2023-06-22T02:25:40;13.43;;;6.60;;
22219;SDS011;11279;48.364;10.904;2023-06-22T02:26:44;12.52;;;5.43;;
22219;SDS011;11279;48.364;10.904;2023-06-22T02:27:45;15.75;;;6.43;;
22219;SDS011;11279;48.364;10.904;2023-06-22T02:28:46;14.33;;;6.70;;
22219;SDS011;11279;48.364;10.904;2023-06-22T02:29:46;10.57;;;5.80;;
22219;SDS011;11279;48.364;10.904;2023-06-22T02:30:47;12.53;;;6.23;;
22219;SDS011;11279;48.364;10.904;2023-06-22T02:31:47;9.47;;;5.83;;
22219;SDS011;11279;48.364;10.904;2023-06-22T02:32:47;14.90;;;6.57;;
22219;SDS011;11279;48.364;10.904;2023-06-22T02:33:48;11.17;;;6.07;;
22219;SDS011;11279;48.364;10.904;2023-06-22T02:34:49;12.77;;;6.77;;
22219;SDS011;11279;48.364;10.904;2023-06-22T02:35:49;15.70;;;6.87;;
22219;SDS011;11279;48.364;10.904;2023-06-22T02:36:49;11.47;;;6.53;;
22219;SDS011;11279;48.364;10.904;2023-06-22T02:37:53;13.60;;;6.32;;
22219;SDS011;11279;48.364;10.904;2023-06-22T02:38:55;11.38;;;6.40;;
22219;SDS011;11279;48.364;10.904;2023-06-22T02:40:01;14.10;;;6.20;;
22219;SDS011;11279;48.364;10.904;2023-06-22T02:41:03;14.52;;;6.35;;
22219;SDS011;11279;48.364;10.904;2023-06-22T02:42:03;14.33;;;6.40;;
22219;SDS011;11279;48.364;10.904;2023-06-22T02:43:04;13.70;;;6.77;;
22219;SDS011;11279;48.364;10.904;2023-06-22T02:44:04;12.70;;;6.93;;
22219;SDS011;11279;48.364;10.904;2023-06-22T02:45:05;13.23;;;6.67;;
22219;SDS011;11279;48.364;10.904;2023-06-22T02:46:06;11.90;;;5.87;;
22219;SDS011;11279;48.364;10.904;2023-06-22T02:47:07;13.93;;;6.37;;
22219;SDS011;11279;48.364;10.904;2023-06-22T02:48:07;11.32;;;6.65;;
22219;SDS011;11279;48.364;10.904;2023-06-22T02:49:08;13.30;;;6.77;;
22219;SDS011;11279;48.364;10.904;2023-06-22T02:50:08;15.70;;;6.70;;
22219;SDS011;11279;48.364;10.904;2023-06-22T02:51:09;14.83;;;6.40;;
22219;SDS011;11279;48.364;10.904;2023-06-22T02:52:10;12.40;;;6.43;;
22219;SDS011;11279;48.364;10.904;2023-06-22T02:53:10;12.67;;;6.57;;
22219;SDS011;11279;48.364;10.904;2023-06-22T02:54:10;11.33;;;6.10;;
22219;SDS011;11279;48.364;10.904;2023-06-22T02:55:11;13.50;;;6.27;;
22219;SDS011;11279;48.364;10.904;2023-06-22T02:56:11;9.93;;;6.37;;
22219;SDS011;11279;48.364;10.904;2023-06-22T02:57:12;12.77;;;6.60;;
22219;SDS011;11279;48.364;10.904;2023-06-22T02:58:13;13.32;;;6.57;;
22219;SDS011;11279;48.364;10.904;2023-06-22T02:59:14;11.77;;;6.33;;
22219;SDS011;11279;48.364;10.904;2023-06-22T03:00:14;14.70;;;6.73;;
22219;SDS011;11279;48.364;10.904;2023-06-22T03:01:17;11.43;;;6.13;;
22219;SDS011;11279;48.364;10.904;2023-06-22T03:02:24;13.52;;;6.55;;
22219;SDS011;11279;48.364;10.904;2023-06-22T03:03:24;12.67;;;6.10;;
22219;SDS011;11279;48.364;10.904;2023-06-22T03:04:26;13.77;;;7.03;;
22219;SDS011;11279;48.364;10.904;2023-06-22T03:05:26;14.33;;;6.60;;
22219;SDS011;11279;48.364;10.904;2023-06-22T03:06:27;11.10;;;6.40;;
22219;SDS011;11279;48.364;10.904;2023-06-22T03:07:28;15.35;;;6.85;;
22219;SDS011;11279;48.364;10.904;2023-06-22T03:08:30;13.13;;;6.88;;
22219;SDS011;11279;48.364;10.904;2023-06-22T03:09:30;16.40;;;6.70;;
22219;SDS011;11279;48.364;10.904;2023-06-22T03:10:31;13.17;;;6.80;;
22219;SDS011;11279;48.364;10.904;2023-06-22T03:11:31;12.27;;;6.97;;
22219;SDS011;11279;48.364;10.904;2023-06-22T03:12:33;16.10;;;7.55;;
22219;SDS011;11279;48.364;10.904;2023-06-22T03:13:33;15.40;;;6.83;;
22219;SDS011;11279;48.364;10.904;2023-06-22T03:14:33;14.47;;;6.27;;
22219;SDS011;11279;48.364;10.904;2023-06-22T03:15:34;13.37;;;7.37;;
22219;SDS011;11279;48.364;10.904;2023-06-22T03:16:34;12.17;;;6.93;;
22219;SDS011;11279;48.364;10.904;2023-06-22T03:17:35;11.67;;;6.37;;
22219;SDS011;11279;48.364;10.904;2023-06-22T03:18:36;10.50;;;6.22;;
22219;SDS011;11279;48.364;10.904;2023-06-22T03:19:36;15.37;;;6.97;;
22219;SDS011;11279;48.364;10.904;2023-06-22T03:20:37;13.53;;;7.00;;
22219;SDS011;11279;48.364;10.904;2023-06-22T03:21:38;14.07;;;6.90;;
22219;SDS011;11279;48.364;10.904;2023-06-22T03:22:39;15.33;;;6.57;;
22219;SDS011;11279;48.364;10.904;2023-06-22T03:23:41;13.02;;;6.75;;
22219;SDS011;11279;48.364;10.904;2023-06-22T03:24:41;13.10;;;6.90;;
22219;SDS011;11279;48.364;10.904;2023-06-22T03:25:42;15.60;;;6.87;;
22219;SDS011;11279;48.364;10.904;2023-06-22T03:26:44;14.52;;;7.03;;
22219;SDS011;11279;48.364;10.904;2023-06-22T03:27:46;14.35;;;7.05;;
22219;SDS011;11279;48.364;10.904;2023-06-22T03:28:48;12.93;;;6.70;;
22219;SDS011;11279;48.364;10.904;2023-06-22T03:29:48;15.63;;;7.23;;
22219;SDS011;11279;48.364;10.904;2023-06-22T03:30:49;12.63;;;7.00;;
22219;SDS011;11279;48.364;10.904;2023-06-22T03:31:49;18.50;;;7.73;;
22219;SDS011;11279;48.364;10.904;2023-06-22T03:32:49;13.20;;;7.40;;
22219;SDS011;11279;48.364;10.904;2023-06-22T03:33:50;15.63;;;6.47;;
22219;SDS011;11279;48.364;10.904;2023-06-22T03:34:51;13.90;;;6.93;;
22219;SDS011;11279;48.364;10.904;2023-06-22T03:35:51;15.23;;;7.20;;
22219;SDS011;11279;48.364;10.904;2023-06-22T03:36:51;12.53;;;7.33;;
22219;SDS011;11279;48.364;10.904;2023-06-22T03:37:52;15.30;;;7.57;;
22219;SDS011;11279;48.364;10.904;2023-06-22T03:38:52;18.07;;;7.63;;
22219;SDS011;11279;48.364;10.904;2023-06-22T03:39:53;14.40;;;6.97;;
22219;SDS011;11279;48.364;10.904;2023-06-22T03:40:53;12.97;;;7.30;;
22219;SDS011;11279;48.364;10.904;2023-06-22T03:41:54;19.33;;;7.17;;
22219;SDS011;11279;48.364;10.904;2023-06-22T03:42:54;14.70;;;7.17;;
22219;SDS011;11279;48.364;10.904;2023-06-22T03:43:55;15.17;;;7.53;;
22219;SDS011;11279;48.364;10.904;2023-06-22T03:44:55;13.93;;;6.70;;
22219;SDS011;11279;48.364;10.904;2023-06-22T03:45:56;12.67;;;7.00;;
22219;SDS011;11279;48.364;10.904;2023-06-22T03:46:56;13.63;;;7.47;;
22219;SDS011;11279;48.364;10.904;2023-06-22T03:47:56;15.77;;;7.20;;
22219;SDS011;11279;48.364;10.904;2023-06-22T03:48:57;15.43;;;7.10;;
22219;SDS011;11279;48.364;10.904;2023-06-22T03:49:58;12.07;;;7.20;;
22219;SDS011;11279;48.364;10.904;2023-06-22T03:51:01;14.37;;;7.13;;
22219;SDS011;11279;48.364;10.904;2023-06-22T03:52:03;14.63;;;7.55;;
22219;SDS011;11279;48.364;10.904;2023-06-22T03:53:03;14.50;;;6.70;;
22219;SDS011;11279;48.364;10.904;2023-06-22T03:54:04;14.20;;;7.33;;
22219;SDS011;11279;48.364;10.904;2023-06-22T03:55:04;15.90;;;7.00;;
22219;SDS011;11279;48.364;10.904;2023-06-22T03:56:06;14.90;;;7.30;;
22219;SDS011;11279;48.364;10.904;2023-06-22T03:57:06;12.47;;;7.10;;
22219;SDS011;11279;48.364;10.904;2023-06-22T03:58:06;13.67;;;7.53;;
22219;SDS011;11279;48.364;10.904;2023-06-22T03:59:07;11.83;;;7.00;;
22219;SDS011;11279;48.364;10.904;2023-06-22T04:00:07;13.77;;;7.33;;
22219;SDS011;11279;48.364;10.904;2023-06-22T04:01:09;13.95;;;7.30;;
22219;SDS011;11279;48.364;10.904;2023-06-22T04:02:11;14.35;;;7.05;;
22219;SDS011;11279;48.364;10.904;2023-06-22T04:03:12;15.37;;;7.73;;
22219;SDS011;11279;48.364;10.904;2023-06-22T04:04:13;10.87;;;6.53;;
22219;SDS011;11279;48.364;10.904;2023-06-22T04:05:13;12.80;;;7.33;;
22219;SDS011;11279;48.364;10.904;2023-06-22T04:06:13;12.93;;;7.17;;
22219;SDS011;11279;48.364;10.904;2023-06-22T04:07:14;14.17;;;7.37;;
22219;SDS011;11279;48.364;10.904;2023-06-22T04:08:14;11.43;;;7.07;;
22219;SDS011;11279;48.364;10.904;2023-06-22T04:09:15;18.20;;;7.43;;
22219;SDS011;11279;48.364;10.904;2023-06-22T04:10:16;15.17;;;7.43;;
22219;SDS011;11279;48.364;10.904;2023-06-22T04:11:17;13.23;;;7.13;;
22219;SDS011;11279;48.364;10.904;2023-06-22T04:12:18;11.65;;;6.88;;
22219;SDS011;11279;48.364;10.904;2023-06-22T04:13:18;17.37;;;7.50;;
22219;SDS011;11279;48.364;10.904;2023-06-22T04:14:19;12.80;;;7.90;;
22219;SDS011;11279;48.364;10.904;2023-06-22T04:15:20;14.80;;;7.37;;
22219;SDS011;11279;48.364;10.904;2023-06-22T04:16:20;13.07;;;7.07;;
22219;SDS011;11279;48.364;10.904;2023-06-22T04:17:20;14.50;;;7.67;;
22219;SDS011;11279;48.364;10.904;2023-06-22T04:18:21;15.47;;;7.57;;
22219;SDS011;11279;48.364;10.904;2023-06-22T04:19:21;14.83;;;7.40;;
22219;SDS011;11279;48.364;10.904;2023-06-22T04:20:22;11.70;;;7.03;;
22219;SDS011;11279;48.364;10.904;2023-06-22T04:21:25;15.65;;;8.07;;
22219;SDS011;11279;48.364;10.904;2023-06-22T04:22:25;13.10;;;8.20;;
22219;SDS011;11279;48.364;10.904;2023-06-22T04:23:26;16.73;;;7.70;;
22219;SDS011;11279;48.364;10.904;2023-06-22T04:24:26;12.73;;;7.73;;
22219;SDS011;11279;48.364;10.904;2023-06-22T04:25:27;16.13;;;7.97;;
22219;SDS011;11279;48.364;10.904;2023-06-22T04:26:27;15.53;;;7.23;;
22219;SDS011;11279;48.364;10.904;2023-06-22T04:27:28;14.57;;;7.13;;
22219;SDS011;11279;48.364;10.904;2023-06-22T04:28:28;16.13;;;7.97;;
22219;SDS011;11279;48.364;10.904;2023-06-22T04:29:29;11.57;;;7.13;;
22219;SDS011;11279;48.364;10.904;2023-06-22T04:30:31;16.35;;;7.53;;
22219;SDS011;11279;48.364;10.904;2023-06-22T04:31:33;11.98;;;6.88;;
22219;SDS011;11279;48.364;10.904;2023-06-22T04:32:36;16.80;;;7.85;;
22219;SDS011;11279;48.364;10.904;2023-06-22T04:33:37;14.53;;;7.33;;
22219;SDS011;11279;48.364;10.904;2023-06-22T04:34:40;13.27;;;7.03;;
22219;SDS011;11279;48.364;10.904;2023-06-22T04:35:44;13.93;;;7.72;;
22219;SDS011;11279;48.364;10.904;2023-06-22T04:36:45;16.60;;;7.80;;
22219;SDS011;11279;48.364;10.904;2023-06-22T04:37:45;16.30;;;7.50;;
22219;SDS011;11279;48.364;10.904;2023-06-22T04:38:48;17.87;;;7.63;;
22219;SDS011;11279;48.364;10.904;2023-06-22T04:39:52;16.37;;;8.10;;
22219;SDS011;11279;48.364;10.904;2023-06-22T04:40:53;15.37;;;7.53;;
22219;SDS011;11279;48.364;10.904;2023-06-22T04:41:53;13.33;;;7.17;;
22219;SDS011;11279;48.364;10.904;2023-06-22T04:42:55;16.33;;;7.80;;
22219;SDS011;11279;48.364;10.904;2023-06-22T04:43:55;12.80;;;7.67;;
22219;SDS011;11279;48.364;10.904;2023-06-22T04:45:00;15.07;;;7.30;;
22219;SDS011;11279;48.364;10.904;2023-06-22T04:46:00;12.30;;;7.40;;
22219;SDS011;11279;48.364;10.904;2023-06-22T04:47:03;14.83;;;7.47;;
22219;SDS011;11279;48.364;10.904;2023-06-22T04:48:08;11.77;;;6.45;;
22219;SDS011;11279;48.364;10.904;2023-06-22T04:49:09;13.47;;;7.33;;
22219;SDS011;11279;48.364;10.904;2023-06-22T04:50:10;12.50;;;7.17;;
22219;SDS011;11279;48.364;10.904;2023-06-22T04:51:10;14.53;;;7.93;;
22219;SDS011;11279;48.364;10.904;2023-06-22T04:52:11;16.20;;;7.13;;
22219;SDS011;11279;48.364;10.904;2023-06-22T04:53:12;12.80;;;5.93;;
22219;SDS011;11279;48.364;10.904;2023-06-22T04:54:14;13.53;;;6.77;;
22219;SDS011;11279;48.364;10.904;2023-06-22T04:55:14;13.17;;;6.43;;
22219;SDS011;11279;48.364;10.904;2023-06-22T04:56:18;12.40;;;6.60;;
22219;SDS011;11279;48.364;10.904;2023-06-22T04:57:21;12.53;;;6.50;;
22219;SDS011;11279;48.364;10.904;2023-06-22T04:58:32;12.50;;;6.57;;
22219;SDS011;11279;48.364;10.904;2023-06-22T04:59:32;12.30;;;6.87;;
22219;SDS011;11279;48.364;10.904;2023-06-22T05:00:33;14.50;;;7.20;;
22219;SDS011;11279;48.364;10.904;2023-06-22T05:01:36;12.10;;;6.50;;
22219;SDS011;11279;48.364;10.904;2023-06-22T05:02:37;13.27;;;7.03;;
22219;SDS011;11279;48.364;10.904;2023-06-22T05:03:39;13.57;;;6.13;;
22219;SDS011;11279;48.364;10.904;2023-06-22T05:04:41;14.10;;;6.23;;
22219;SDS011;11279;48.364;10.904;2023-06-22T05:05:42;12.47;;;6.43;;
22219;SDS011;11279;48.364;10.904;2023-06-22T05:06:42;11.30;;;6.30;;
22219;SDS011;11279;48.364;10.904;2023-06-22T05:07:43;10.63;;;6.03;;
22219;SDS011;11279;48.364;10.904;2023-06-22T05:08:44;14.83;;;6.10;;
22219;SDS011;11279;48.364;10.904;2023-06-22T05:09:45;10.80;;;5.83;;
22219;SDS011;11279;48.364;10.904;2023-06-22T05:10:45;9.77;;;5.90;;
22219;SDS011;11279;48.364;10.904;2023-06-22T05:11:46;14.07;;;6.67;;
22219;SDS011;11279;48.364;10.904;2023-06-22T05:12:46;12.37;;;5.90;;
22219;SDS011;11279;48.364;10.904;2023-06-22T05:13:47;11.53;;;6.03;;
22219;SDS011;11279;48.364;10.904;2023-06-22T05:14:47;10.60;;;5.50;;
22219;SDS011;11279;48.364;10.904;2023-06-22T05:15:48;12.57;;;6.60;;
22219;SDS011;11279;48.364;10.904;2023-06-22T05:16:48;11.40;;;5.60;;
22219;SDS011;11279;48.364;10.904;2023-06-22T05:17:49;14.13;;;6.57;;
22219;SDS011;11279;48.364;10.904;2023-06-22T05:18:53;11.90;;;6.17;;
22219;SDS011;11279;48.364;10.904;2023-06-22T05:19:54;9.83;;;5.90;;
22219;SDS011;11279;48.364;10.904;2023-06-22T05:20:55;12.97;;;5.90;;
22219;SDS011;11279;48.364;10.904;2023-06-22T05:21:55;12.33;;;5.77;;
22219;SDS011;11279;48.364;10.904;2023-06-22T05:22:56;15.47;;;6.13;;
22219;SDS011;11279;48.364;10.904;2023-06-22T05:23:56;13.20;;;6.03;;
22219;SDS011;11279;48.364;10.904;2023-06-22T05:25:02;11.50;;;5.63;;
22219;SDS011;11279;48.364;10.904;2023-06-22T05:26:03;11.03;;;6.00;;
22219;SDS011;11279;48.364;10.904;2023-06-22T05:27:03;13.73;;;6.07;;
22219;SDS011;11279;48.364;10.904;2023-06-22T05:28:04;12.37;;;6.07;;
22219;SDS011;11279;48.364;10.904;2023-06-22T05:29:05;12.53;;;6.07;;
22219;SDS011;11279;48.364;10.904;2023-06-22T05:30:06;11.13;;;5.80;;
22219;SDS011;11279;48.364;10.904;2023-06-22T05:31:08;12.43;;;6.33;;
22219;SDS011;11279;48.364;10.904;2023-06-22T05:32:08;12.93;;;6.00;;
22219;SDS011;11279;48.364;10.904;2023-06-22T05:33:08;10.33;;;5.17;;
22219;SDS011;11279;48.364;10.904;2023-06-22T05:34:09;10.60;;;5.30;;
22219;SDS011;11279;48.364;10.904;2023-06-22T05:35:09;10.90;;;5.57;;
22219;SDS011;11279;48.364;10.904;2023-06-22T05:36:10;11.43;;;5.27;;
22219;SDS011;11279;48.364;10.904;2023-06-22T05:37:10;9.80;;;5.57;;
22219;SDS011;11279;48.364;10.904;2023-06-22T05:38:13;13.93;;;5.83;;
22219;SDS011;11279;48.364;10.904;2023-06-22T05:39:14;11.23;;;6.20;;
22219;SDS011;11279;48.364;10.904;2023-06-22T05:40:15;12.43;;;5.70;;
22219;SDS011;11279;48.364;10.904;2023-06-22T05:41:15;11.93;;;5.73;;
22219;SDS011;11279;48.364;10.904;2023-06-22T05:42:16;10.20;;;5.67;;
22219;SDS011;11279;48.364;10.904;2023-06-22T05:43:16;13.43;;;5.37;;
22219;SDS011;11279;48.364;10.904;2023-06-22T05:44:17;11.83;;;5.47;;
22219;SDS011;11279;48.364;10.904;2023-06-22T05:45:17;12.87;;;5.70;;
22219;SDS011;11279;48.364;10.904;2023-06-22T05:46:18;11.03;;;6.13;;
22219;SDS011;11279;48.364;10.904;2023-06-22T05:47:19;11.30;;;5.93;;
22219;SDS011;11279;48.364;10.904;2023-06-22T05:48:20;11.73;;;6.30;;
22219;SDS011;11279;48.364;10.904;2023-06-22T05:49:20;11.57;;;5.80;;
22219;SDS011;11279;48.364;10.904;2023-06-22T05:50:22;10.80;;;6.03;;
22219;SDS011;11279;48.364;10.904;2023-06-22T05:51:22;15.33;;;6.07;;
22219;SDS011;11279;48.364;10.904;2023-06-22T05:52:23;11.93;;;6.70;;
22219;SDS011;11279;48.364;10.904;2023-06-22T05:53:23;11.77;;;6.53;;
22219;SDS011;11279;48.364;10.904;2023-06-22T05:54:24;12.10;;;6.00;;
22219;SDS011;11279;48.364;10.904;2023-06-22T05:55:24;12.63;;;6.83;;
22219;SDS011;11279;48.364;10.904;2023-06-22T05:56:25;12.60;;;6.10;;
22219;SDS011;11279;48.364;10.904;2023-06-22T05:57:25;12.73;;;6.47;;
22219;SDS011;11279;48.364;10.904;2023-06-22T05:58:25;9.17;;;6.00;;
22219;SDS011;11279;48.364;10.904;2023-06-22T05:59:26;13.03;;;6.47;;
22219;SDS011;11279;48.364;10.904;2023-06-22T06:00:26;10.27;;;6.43;;
22219;SDS011;11279;48.364;10.904;2023-06-22T06:01:27;11.17;;;6.07;;
22219;SDS011;11279;48.364;10.904;2023-06-22T06:02:27;13.67;;;6.30;;
22219;SDS011;11279;48.364;10.904;2023-06-22T06:03:27;14.43;;;6.57;;
22219;SDS011;11279;48.364;10.904;2023-06-22T06:04:28;9.37;;;5.67;;
22219;SDS011;11279;48.364;10.904;2023-06-22T06:05:32;11.90;;;6.13;;